<?xml version="1.0" encoding="UTF-8" standalone="no" ?>
<gpx xmlns="http://www.topografix.com/GPX/1/1" xmlns:xsi="http://www.w3.org/2001/XMLSchema-instance" xsi:schemaLocation="http://www.topografix.com/GPX/1/1 http://www.topografix.com/GPX/1/1/gpx.xsd" version="1.1" creator="VisuGPX - https://www.visugpx.com">
  <metadata>
    <name>T-15-05-18-mies</name>
    <desc><![CDATA[étape 3 du tour du canton]]></desc>
  </metadata>
  <trk>
    <name><![CDATA[18-05-2015 18:02:05]]></name>
    <trkseg>
      <trkpt lat="46.30625" lon="6.1665">
        <ele>442.03</ele>
        <time>2015-05-18T15:39:56Z</time>
      </trkpt>
      <trkpt lat="46.30633" lon="6.1664">
        <ele>438.75</ele>
        <time>2015-05-18T15:40:01Z</time>
      </trkpt>
      <trkpt lat="46.30635" lon="6.16638">
        <ele>437.98</ele>
        <time>2015-05-18T15:40:02Z</time>
      </trkpt>
      <trkpt lat="46.30641" lon="6.16611">
        <ele>434.73</ele>
        <time>2015-05-18T15:40:08Z</time>
      </trkpt>
      <trkpt lat="46.30652" lon="6.16555">
        <ele>432.13</ele>
        <time>2015-05-18T15:40:18Z</time>
      </trkpt>
      <trkpt lat="46.30665" lon="6.16488">
        <ele>428.87</ele>
        <time>2015-05-18T15:40:30Z</time>
      </trkpt>
      <trkpt lat="46.30689" lon="6.16379">
        <ele>428.4</ele>
        <time>2015-05-18T15:40:50Z</time>
      </trkpt>
      <trkpt lat="46.3069" lon="6.16374">
        <ele>428.43</ele>
        <time>2015-05-18T15:40:51Z</time>
      </trkpt>
      <trkpt lat="46.30693" lon="6.16363">
        <ele>428.4</ele>
        <time>2015-05-18T15:40:53Z</time>
      </trkpt>
      <trkpt lat="46.30702" lon="6.16323">
        <ele>427.15</ele>
        <time>2015-05-18T15:41:00Z</time>
      </trkpt>
      <trkpt lat="46.3071" lon="6.16306">
        <ele>426.55</ele>
        <time>2015-05-18T15:41:03Z</time>
      </trkpt>
      <trkpt lat="46.30734" lon="6.16304">
        <ele>425.65</ele>
        <time>2015-05-18T15:41:08Z</time>
      </trkpt>
      <trkpt lat="46.30752" lon="6.16281">
        <ele>426.03</ele>
        <time>2015-05-18T15:41:14Z</time>
      </trkpt>
      <trkpt lat="46.30764" lon="6.16256">
        <ele>425.72</ele>
        <time>2015-05-18T15:41:19Z</time>
      </trkpt>
      <trkpt lat="46.30787" lon="6.16202">
        <ele>426.58</ele>
        <time>2015-05-18T15:41:29Z</time>
      </trkpt>
      <trkpt lat="46.30824" lon="6.16118">
        <ele>428.24</ele>
        <time>2015-05-18T15:41:44Z</time>
      </trkpt>
      <trkpt lat="46.30842" lon="6.16114">
        <ele>428.17</ele>
        <time>2015-05-18T15:41:49Z</time>
      </trkpt>
      <trkpt lat="46.30886" lon="6.16181">
        <ele>428.68</ele>
        <time>2015-05-18T15:42:00Z</time>
      </trkpt>
      <trkpt lat="46.30918" lon="6.16235">
        <ele>428.26</ele>
        <time>2015-05-18T15:42:07Z</time>
      </trkpt>
      <trkpt lat="46.30971" lon="6.16345">
        <ele>428.43</ele>
        <time>2015-05-18T15:42:21Z</time>
      </trkpt>
      <trkpt lat="46.31038" lon="6.16418">
        <ele>427.74</ele>
        <time>2015-05-18T15:42:34Z</time>
      </trkpt>
      <trkpt lat="46.31053" lon="6.16423">
        <ele>427.12</ele>
        <time>2015-05-18T15:42:37Z</time>
      </trkpt>
      <trkpt lat="46.31097" lon="6.16311">
        <ele>429.06</ele>
        <time>2015-05-18T15:42:53Z</time>
      </trkpt>
      <trkpt lat="46.31124" lon="6.16247">
        <ele>430.08</ele>
        <time>2015-05-18T15:43:03Z</time>
      </trkpt>
      <trkpt lat="46.31171" lon="6.1619">
        <ele>431.09</ele>
        <time>2015-05-18T15:43:15Z</time>
      </trkpt>
      <trkpt lat="46.3122" lon="6.1613">
        <ele>434.85</ele>
        <time>2015-05-18T15:43:30Z</time>
      </trkpt>
      <trkpt lat="46.31238" lon="6.16092">
        <ele>438.07</ele>
        <time>2015-05-18T15:43:39Z</time>
      </trkpt>
      <trkpt lat="46.31265" lon="6.16033">
        <ele>440.64</ele>
        <time>2015-05-18T15:43:52Z</time>
      </trkpt>
      <trkpt lat="46.31287" lon="6.16034">
        <ele>440.46</ele>
        <time>2015-05-18T15:43:58Z</time>
      </trkpt>
      <trkpt lat="46.3137" lon="6.16078">
        <ele>440.95</ele>
        <time>2015-05-18T15:44:14Z</time>
      </trkpt>
      <trkpt lat="46.31382" lon="6.16081">
        <ele>441.02</ele>
        <time>2015-05-18T15:44:16Z</time>
      </trkpt>
      <trkpt lat="46.31412" lon="6.16074">
        <ele>441.53</ele>
        <time>2015-05-18T15:44:21Z</time>
      </trkpt>
      <trkpt lat="46.31418" lon="6.16072">
        <ele>441.52</ele>
        <time>2015-05-18T15:44:22Z</time>
      </trkpt>
      <trkpt lat="46.31447" lon="6.16055">
        <ele>441.6</ele>
        <time>2015-05-18T15:44:27Z</time>
      </trkpt>
      <trkpt lat="46.31474" lon="6.16018">
        <ele>441.9</ele>
        <time>2015-05-18T15:44:33Z</time>
      </trkpt>
      <trkpt lat="46.31496" lon="6.15998">
        <ele>441.69</ele>
        <time>2015-05-18T15:44:37Z</time>
      </trkpt>
      <trkpt lat="46.31598" lon="6.15955">
        <ele>442.06</ele>
        <time>2015-05-18T15:44:54Z</time>
      </trkpt>
      <trkpt lat="46.31719" lon="6.15953">
        <ele>442.32</ele>
        <time>2015-05-18T15:45:13Z</time>
      </trkpt>
      <trkpt lat="46.31776" lon="6.15954">
        <ele>443.17</ele>
        <time>2015-05-18T15:45:22Z</time>
      </trkpt>
      <trkpt lat="46.31861" lon="6.15954">
        <ele>446.63</ele>
        <time>2015-05-18T15:45:38Z</time>
      </trkpt>
      <trkpt lat="46.31932" lon="6.15954">
        <ele>449.66</ele>
        <time>2015-05-18T15:45:53Z</time>
      </trkpt>
      <trkpt lat="46.32031" lon="6.15955">
        <ele>450.01</ele>
        <time>2015-05-18T15:46:10Z</time>
      </trkpt>
      <trkpt lat="46.32129" lon="6.15955">
        <ele>450.46</ele>
        <time>2015-05-18T15:46:26Z</time>
      </trkpt>
      <trkpt lat="46.32201" lon="6.15975">
        <ele>451.29</ele>
        <time>2015-05-18T15:46:40Z</time>
      </trkpt>
      <trkpt lat="46.32242" lon="6.15997">
        <ele>451.46</ele>
        <time>2015-05-18T15:46:47Z</time>
      </trkpt>
      <trkpt lat="46.32308" lon="6.16033">
        <ele>452.26</ele>
        <time>2015-05-18T15:46:58Z</time>
      </trkpt>
      <trkpt lat="46.32446" lon="6.16106">
        <ele>449.98</ele>
        <time>2015-05-18T15:47:16Z</time>
      </trkpt>
      <trkpt lat="46.32605" lon="6.16193">
        <ele>448.14</ele>
        <time>2015-05-18T15:47:35Z</time>
      </trkpt>
      <trkpt lat="46.3276" lon="6.16276">
        <ele>450.66</ele>
        <time>2015-05-18T15:47:56Z</time>
      </trkpt>
      <trkpt lat="46.32816" lon="6.16306">
        <ele>450.8</ele>
        <time>2015-05-18T15:48:05Z</time>
      </trkpt>
      <trkpt lat="46.32834" lon="6.16293">
        <ele>450.11</ele>
        <time>2015-05-18T15:48:10Z</time>
      </trkpt>
      <trkpt lat="46.32866" lon="6.16141">
        <ele>451.98</ele>
        <time>2015-05-18T15:48:30Z</time>
      </trkpt>
      <trkpt lat="46.32884" lon="6.16036">
        <ele>455.24</ele>
        <time>2015-05-18T15:48:46Z</time>
      </trkpt>
      <trkpt lat="46.32895" lon="6.15982">
        <ele>457.51</ele>
        <time>2015-05-18T15:48:55Z</time>
      </trkpt>
      <trkpt lat="46.32947" lon="6.15856">
        <ele>459.88</ele>
        <time>2015-05-18T15:49:16Z</time>
      </trkpt>
      <trkpt lat="46.32949" lon="6.15849">
        <ele>459.97</ele>
        <time>2015-05-18T15:49:17Z</time>
      </trkpt>
      <trkpt lat="46.32984" lon="6.15759">
        <ele>462.89</ele>
        <time>2015-05-18T15:49:34Z</time>
      </trkpt>
      <trkpt lat="46.33001" lon="6.15716">
        <ele>465.54</ele>
        <time>2015-05-18T15:49:43Z</time>
      </trkpt>
      <trkpt lat="46.33011" lon="6.1569">
        <ele>466.7</ele>
        <time>2015-05-18T15:49:48Z</time>
      </trkpt>
      <trkpt lat="46.33073" lon="6.15588">
        <ele>467.7</ele>
        <time>2015-05-18T15:50:07Z</time>
      </trkpt>
      <trkpt lat="46.3308" lon="6.15577">
        <ele>467.91</ele>
        <time>2015-05-18T15:50:09Z</time>
      </trkpt>
      <trkpt lat="46.33099" lon="6.15546">
        <ele>468.5</ele>
        <time>2015-05-18T15:50:15Z</time>
      </trkpt>
      <trkpt lat="46.33146" lon="6.15451">
        <ele>471.35</ele>
        <time>2015-05-18T15:50:30Z</time>
      </trkpt>
      <trkpt lat="46.33179" lon="6.15373">
        <ele>473.13</ele>
        <time>2015-05-18T15:50:43Z</time>
      </trkpt>
      <trkpt lat="46.33189" lon="6.1535">
        <ele>473.88</ele>
        <time>2015-05-18T15:50:47Z</time>
      </trkpt>
      <trkpt lat="46.33198" lon="6.15326">
        <ele>474.39</ele>
        <time>2015-05-18T15:50:51Z</time>
      </trkpt>
      <trkpt lat="46.33205" lon="6.15309">
        <ele>475.18</ele>
        <time>2015-05-18T15:50:54Z</time>
      </trkpt>
      <trkpt lat="46.33213" lon="6.1529">
        <ele>475.26</ele>
        <time>2015-05-18T15:50:57Z</time>
      </trkpt>
      <trkpt lat="46.33218" lon="6.15267">
        <ele>475.6</ele>
        <time>2015-05-18T15:51:01Z</time>
      </trkpt>
      <trkpt lat="46.33195" lon="6.15244">
        <ele>476</ele>
        <time>2015-05-18T15:51:07Z</time>
      </trkpt>
      <trkpt lat="46.33132" lon="6.15186">
        <ele>477.06</ele>
        <time>2015-05-18T15:51:21Z</time>
      </trkpt>
      <trkpt lat="46.33105" lon="6.15159">
        <ele>477.18</ele>
        <time>2015-05-18T15:51:27Z</time>
      </trkpt>
      <trkpt lat="46.33044" lon="6.15101">
        <ele>477.52</ele>
        <time>2015-05-18T15:51:39Z</time>
      </trkpt>
      <trkpt lat="46.33007" lon="6.15066">
        <ele>477.61</ele>
        <time>2015-05-18T15:51:46Z</time>
      </trkpt>
      <trkpt lat="46.3298" lon="6.15044">
        <ele>477.73</ele>
        <time>2015-05-18T15:51:51Z</time>
      </trkpt>
      <trkpt lat="46.32954" lon="6.15022">
        <ele>477.74</ele>
        <time>2015-05-18T15:51:56Z</time>
      </trkpt>
      <trkpt lat="46.32928" lon="6.14998">
        <ele>477.54</ele>
        <time>2015-05-18T15:52:01Z</time>
      </trkpt>
      <trkpt lat="46.32867" lon="6.14946">
        <ele>479</ele>
        <time>2015-05-18T15:52:12Z</time>
      </trkpt>
      <trkpt lat="46.32844" lon="6.14924">
        <ele>479.03</ele>
        <time>2015-05-18T15:52:16Z</time>
      </trkpt>
      <trkpt lat="46.32819" lon="6.14898">
        <ele>479.19</ele>
        <time>2015-05-18T15:52:21Z</time>
      </trkpt>
      <trkpt lat="46.32748" lon="6.14831">
        <ele>479.71</ele>
        <time>2015-05-18T15:52:34Z</time>
      </trkpt>
      <trkpt lat="46.32721" lon="6.14803">
        <ele>479.05</ele>
        <time>2015-05-18T15:52:39Z</time>
      </trkpt>
      <trkpt lat="46.32661" lon="6.14748">
        <ele>478.86</ele>
        <time>2015-05-18T15:52:49Z</time>
      </trkpt>
      <trkpt lat="46.32617" lon="6.14706">
        <ele>478.09</ele>
        <time>2015-05-18T15:52:56Z</time>
      </trkpt>
      <trkpt lat="46.32576" lon="6.14672">
        <ele>477.87</ele>
        <time>2015-05-18T15:53:03Z</time>
      </trkpt>
      <trkpt lat="46.32544" lon="6.1464">
        <ele>477.86</ele>
        <time>2015-05-18T15:53:09Z</time>
      </trkpt>
      <trkpt lat="46.32514" lon="6.14612">
        <ele>477.6</ele>
        <time>2015-05-18T15:53:15Z</time>
      </trkpt>
      <trkpt lat="46.3249" lon="6.14612">
        <ele>477.27</ele>
        <time>2015-05-18T15:53:23Z</time>
      </trkpt>
      <trkpt lat="46.32472" lon="6.14647">
        <ele>476.58</ele>
        <time>2015-05-18T15:53:28Z</time>
      </trkpt>
      <trkpt lat="46.32461" lon="6.14672">
        <ele>476.12</ele>
        <time>2015-05-18T15:53:31Z</time>
      </trkpt>
      <trkpt lat="46.32407" lon="6.14766">
        <ele>474.04</ele>
        <time>2015-05-18T15:53:41Z</time>
      </trkpt>
      <trkpt lat="46.32398" lon="6.14784">
        <ele>474.02</ele>
        <time>2015-05-18T15:53:43Z</time>
      </trkpt>
      <trkpt lat="46.32389" lon="6.14801">
        <ele>474.26</ele>
        <time>2015-05-18T15:53:45Z</time>
      </trkpt>
      <trkpt lat="46.32362" lon="6.14851">
        <ele>475.42</ele>
        <time>2015-05-18T15:53:52Z</time>
      </trkpt>
      <trkpt lat="46.32308" lon="6.14998">
        <ele>475.52</ele>
        <time>2015-05-18T15:54:08Z</time>
      </trkpt>
      <trkpt lat="46.32281" lon="6.15066">
        <ele>474.17</ele>
        <time>2015-05-18T15:54:14Z</time>
      </trkpt>
      <trkpt lat="46.32261" lon="6.15117">
        <ele>472.45</ele>
        <time>2015-05-18T15:54:18Z</time>
      </trkpt>
      <trkpt lat="46.32244" lon="6.15207">
        <ele>468.42</ele>
        <time>2015-05-18T15:54:24Z</time>
      </trkpt>
      <trkpt lat="46.32242" lon="6.15223">
        <ele>467.74</ele>
        <time>2015-05-18T15:54:25Z</time>
      </trkpt>
      <trkpt lat="46.32235" lon="6.15304">
        <ele>464.36</ele>
        <time>2015-05-18T15:54:30Z</time>
      </trkpt>
      <trkpt lat="46.32227" lon="6.15384">
        <ele>461.99</ele>
        <time>2015-05-18T15:54:35Z</time>
      </trkpt>
      <trkpt lat="46.32211" lon="6.15547">
        <ele>459.03</ele>
        <time>2015-05-18T15:54:47Z</time>
      </trkpt>
      <trkpt lat="46.32205" lon="6.15566">
        <ele>458.2</ele>
        <time>2015-05-18T15:54:50Z</time>
      </trkpt>
      <trkpt lat="46.32114" lon="6.15564">
        <ele>457.98</ele>
        <time>2015-05-18T15:55:04Z</time>
      </trkpt>
      <trkpt lat="46.31979" lon="6.15564">
        <ele>457.97</ele>
        <time>2015-05-18T15:55:22Z</time>
      </trkpt>
      <trkpt lat="46.31841" lon="6.15567">
        <ele>456.61</ele>
        <time>2015-05-18T15:55:41Z</time>
      </trkpt>
      <trkpt lat="46.31706" lon="6.15573">
        <ele>455.66</ele>
        <time>2015-05-18T15:56:01Z</time>
      </trkpt>
      <trkpt lat="46.316" lon="6.15576">
        <ele>452.49</ele>
        <time>2015-05-18T15:56:15Z</time>
      </trkpt>
      <trkpt lat="46.31558" lon="6.15577">
        <ele>449.39</ele>
        <time>2015-05-18T15:56:20Z</time>
      </trkpt>
      <trkpt lat="46.3155" lon="6.15577">
        <ele>449.18</ele>
        <time>2015-05-18T15:56:21Z</time>
      </trkpt>
      <trkpt lat="46.31444" lon="6.15583">
        <ele>446.88</ele>
        <time>2015-05-18T15:56:35Z</time>
      </trkpt>
      <trkpt lat="46.31438" lon="6.15583">
        <ele>446.77</ele>
        <time>2015-05-18T15:56:36Z</time>
      </trkpt>
      <trkpt lat="46.31429" lon="6.15577">
        <ele>446.7</ele>
        <time>2015-05-18T15:56:38Z</time>
      </trkpt>
      <trkpt lat="46.31411" lon="6.15437">
        <ele>447.2</ele>
        <time>2015-05-18T15:56:55Z</time>
      </trkpt>
      <trkpt lat="46.31412" lon="6.1542">
        <ele>447.58</ele>
        <time>2015-05-18T15:56:57Z</time>
      </trkpt>
      <trkpt lat="46.31397" lon="6.15384">
        <ele>449.04</ele>
        <time>2015-05-18T15:57:03Z</time>
      </trkpt>
      <trkpt lat="46.31295" lon="6.15299">
        <ele>449.31</ele>
        <time>2015-05-18T15:57:23Z</time>
      </trkpt>
      <trkpt lat="46.31234" lon="6.15247">
        <ele>451.32</ele>
        <time>2015-05-18T15:57:36Z</time>
      </trkpt>
      <trkpt lat="46.31143" lon="6.15171">
        <ele>452.55</ele>
        <time>2015-05-18T15:57:55Z</time>
      </trkpt>
      <trkpt lat="46.31127" lon="6.15158">
        <ele>452.56</ele>
        <time>2015-05-18T15:57:58Z</time>
      </trkpt>
      <trkpt lat="46.31112" lon="6.15158">
        <ele>452.38</ele>
        <time>2015-05-18T15:58:01Z</time>
      </trkpt>
      <trkpt lat="46.31054" lon="6.15261">
        <ele>451.48</ele>
        <time>2015-05-18T15:58:15Z</time>
      </trkpt>
      <trkpt lat="46.31049" lon="6.15284">
        <ele>450.98</ele>
        <time>2015-05-18T15:58:18Z</time>
      </trkpt>
      <trkpt lat="46.31106" lon="6.15443">
        <ele>449.36</ele>
        <time>2015-05-18T15:58:35Z</time>
      </trkpt>
      <trkpt lat="46.31113" lon="6.15464">
        <ele>448.74</ele>
        <time>2015-05-18T15:58:37Z</time>
      </trkpt>
      <trkpt lat="46.3112" lon="6.1551">
        <ele>447.59</ele>
        <time>2015-05-18T15:58:41Z</time>
      </trkpt>
      <trkpt lat="46.31119" lon="6.15535">
        <ele>446.83</ele>
        <time>2015-05-18T15:58:43Z</time>
      </trkpt>
      <trkpt lat="46.31113" lon="6.15589">
        <ele>445.41</ele>
        <time>2015-05-18T15:58:47Z</time>
      </trkpt>
      <trkpt lat="46.31111" lon="6.15655">
        <ele>443.1</ele>
        <time>2015-05-18T15:58:52Z</time>
      </trkpt>
      <trkpt lat="46.3109" lon="6.15751">
        <ele>440.75</ele>
        <time>2015-05-18T15:59:00Z</time>
      </trkpt>
      <trkpt lat="46.31065" lon="6.1576">
        <ele>439.28</ele>
        <time>2015-05-18T15:59:04Z</time>
      </trkpt>
      <trkpt lat="46.31044" lon="6.15749">
        <ele>439.04</ele>
        <time>2015-05-18T15:59:07Z</time>
      </trkpt>
      <trkpt lat="46.31014" lon="6.1576">
        <ele>438.46</ele>
        <time>2015-05-18T15:59:12Z</time>
      </trkpt>
      <trkpt lat="46.31008" lon="6.15779">
        <ele>438.39</ele>
        <time>2015-05-18T15:59:14Z</time>
      </trkpt>
      <trkpt lat="46.30962" lon="6.15952">
        <ele>435.09</ele>
        <time>2015-05-18T15:59:29Z</time>
      </trkpt>
      <trkpt lat="46.30944" lon="6.15996">
        <ele>433.91</ele>
        <time>2015-05-18T15:59:33Z</time>
      </trkpt>
      <trkpt lat="46.3088" lon="6.16136">
        <ele>431.11</ele>
        <time>2015-05-18T15:59:46Z</time>
      </trkpt>
      <trkpt lat="46.30853" lon="6.16145">
        <ele>429.71</ele>
        <time>2015-05-18T15:59:52Z</time>
      </trkpt>
      <trkpt lat="46.30849" lon="6.16139">
        <ele>429.52</ele>
        <time>2015-05-18T15:59:53Z</time>
      </trkpt>
      <trkpt lat="46.30841" lon="6.16124">
        <ele>429.46</ele>
        <time>2015-05-18T15:59:55Z</time>
      </trkpt>
      <trkpt lat="46.30815" lon="6.16126">
        <ele>428.89</ele>
        <time>2015-05-18T16:00:01Z</time>
      </trkpt>
      <trkpt lat="46.30804" lon="6.16151">
        <ele>428.86</ele>
        <time>2015-05-18T16:00:04Z</time>
      </trkpt>
      <trkpt lat="46.30748" lon="6.16287">
        <ele>427.41</ele>
        <time>2015-05-18T16:00:18Z</time>
      </trkpt>
      <trkpt lat="46.30706" lon="6.16312">
        <ele>426.01</ele>
        <time>2015-05-18T16:00:25Z</time>
      </trkpt>
      <trkpt lat="46.30701" lon="6.16316">
        <ele>426.01</ele>
        <time>2015-05-18T16:00:26Z</time>
      </trkpt>
      <trkpt lat="46.3067" lon="6.16437">
        <ele>427.18</ele>
        <time>2015-05-18T16:00:40Z</time>
      </trkpt>
      <trkpt lat="46.30635" lon="6.16613">
        <ele>425.33</ele>
        <time>2015-05-18T16:00:57Z</time>
      </trkpt>
      <trkpt lat="46.30634" lon="6.16621">
        <ele>425.04</ele>
        <time>2015-05-18T16:00:58Z</time>
      </trkpt>
      <trkpt lat="46.30618" lon="6.16653">
        <ele>424.35</ele>
        <time>2015-05-18T16:01:08Z</time>
      </trkpt>
      <trkpt lat="46.30618" lon="6.16651">
        <ele>424.07</ele>
        <time>2015-05-18T16:01:28Z</time>
      </trkpt>
    </trkseg>
  </trk>
</gpx>